sensor_id;sensor_type;location;lat;lon;timestamp;pressure;altitude;pressure_sealevel;temperature;humidity
59787;BME280;45672;51.612;5.536;2023-02-28T00:00:31;102903.16;;;0.05;82.82
59787;BME280;45672;51.612;5.536;2023-02-28T00:02:56;102904.88;;;0.06;82.18
59787;BME280;45672;51.612;5.536;2023-02-28T00:05:24;102910.97;;;0.07;82.93
59787;BME280;45672;51.612;5.536;2023-02-28T00:07:50;102906.69;;;0.03;82.91
59787;BME280;45672;51.612;5.536;2023-02-28T00:10:21;102907.56;;;0.03;84.68
59787;BME280;45672;51.612;5.536;2023-02-28T00:12:48;102902.34;;;0.03;83.94
59787;BME280;45672;51.612;5.536;2023-02-28T00:15:14;102907.56;;;0.03;84.16
59787;BME280;45672;51.612;5.536;2023-02-28T00:17:39;102905.84;;;0.02;85.08
59787;BME280;45672;51.612;5.536;2023-02-28T00:20:06;102905.84;;;0.02;84.52
59787;BME280;45672;51.612;5.536;2023-02-28T00:22:33;102905.88;;;0.01;83.30
59787;BME280;45672;51.612;5.536;2023-02-28T00:24:59;102905.16;;;-0.06;84.19
59787;BME280;45672;51.612;5.536;2023-02-28T00:27:24;102901.72;;;-0.08;83.50
59787;BME280;45672;51.612;5.536;2023-02-28T00:29:49;102904.41;;;-0.11;83.73
59787;BME280;45672;51.612;5.536;2023-02-28T00:32:15;102903.53;;;-0.12;84.96
59787;BME280;45672;51.612;5.536;2023-02-28T00:34:40;102901.78;;;-0.11;85.66
59787;BME280;45672;51.612;5.536;2023-02-28T00:37:07;102900.88;;;-0.10;84.83
59787;BME280;45672;51.612;5.536;2023-02-28T00:39:35;102902.69;;;-0.12;85.52
59787;BME280;45672;51.612;5.536;2023-02-28T00:42:01;102897.53;;;-0.15;84.13
59787;BME280;45672;51.612;5.536;2023-02-28T00:44:27;102899.38;;;-0.21;85.28
59787;BME280;45672;51.612;5.536;2023-02-28T00:46:52;102894.09;;;-0.19;84.49
59787;BME280;45672;51.612;5.536;2023-02-28T00:49:19;102900.28;;;-0.23;86.03
59787;BME280;45672;51.612;5.536;2023-02-28T00:51:45;102891.63;;;-0.25;85.12
59787;BME280;45672;51.612;5.536;2023-02-28T00:54:10;102897.72;;;-0.25;85.72
59787;BME280;45672;51.612;5.536;2023-02-28T00:56:36;102888.09;;;-0.24;84.90
59787;BME280;45672;51.612;5.536;2023-02-28T00:59:01;102896.94;;;-0.28;86.36
59787;BME280;45672;51.612;5.536;2023-02-28T01:01:26;102902.16;;;-0.28;86.96
59787;BME280;45672;51.612;5.536;2023-02-28T01:03:52;102903.06;;;-0.29;87.13
59787;BME280;45672;51.612;5.536;2023-02-28T01:06:17;102898.78;;;-0.33;86.51
59787;BME280;45672;51.612;5.536;2023-02-28T01:08:42;102891.84;;;-0.36;87.58
59787;BME280;45672;51.612;5.536;2023-02-28T01:11:10;102915.28;;;-0.31;86.66
59787;BME280;45672;51.612;5.536;2023-02-28T01:13:36;102907.47;;;-0.33;86.72
59787;BME280;45672;51.612;5.536;2023-02-28T01:16:01;102913.66;;;-0.36;87.08
59787;BME280;45672;51.612;5.536;2023-02-28T01:18:26;102918.00;;;-0.36;86.95
59787;BME280;45672;51.612;5.536;2023-02-28T01:20:52;102909.31;;;-0.37;87.57
59787;BME280;45672;51.612;5.536;2023-02-28T01:23:19;102914.59;;;-0.38;87.40
59787;BME280;45672;51.612;5.536;2023-02-28T01:25:45;102926.81;;;-0.40;87.53
59787;BME280;45672;51.612;5.536;2023-02-28T01:28:10;102911.16;;;-0.42;87.41
59787;BME280;45672;51.612;5.536;2023-02-28T01:30:36;102916.31;;;-0.39;87.51
59787;BME280;45672;51.612;5.536;2023-02-28T01:33:01;102923.31;;;-0.39;88.10
59787;BME280;45672;51.612;5.536;2023-02-28T01:35:26;102923.28;;;-0.38;88.09
59787;BME280;45672;51.612;5.536;2023-02-28T01:37:52;102904.16;;;-0.40;88.49
59787;BME280;45672;51.612;5.536;2023-02-28T01:40:17;102914.47;;;-0.33;88.38
59787;BME280;45672;51.612;5.536;2023-02-28T01:42:42;102909.13;;;-0.29;88.65
59787;BME280;45672;51.612;5.536;2023-02-28T01:45:26;102908.25;;;-0.28;88.45
59787;BME280;45672;51.612;5.536;2023-02-28T01:47:55;102900.44;;;-0.29;88.25
59787;BME280;45672;51.612;5.536;2023-02-28T01:50:26;102894.41;;;-0.33;87.51
59787;BME280;45672;51.612;5.536;2023-02-28T01:52:55;102893.63;;;-0.37;87.55
59787;BME280;45672;51.612;5.536;2023-02-28T01:55:24;102887.66;;;-0.43;87.84
59787;BME280;45672;51.612;5.536;2023-02-28T01:57:55;102885.03;;;-0.43;87.15
59787;BME280;45672;51.612;5.536;2023-02-28T02:00:24;102894.59;;;-0.41;88.21
59787;BME280;45672;51.612;5.536;2023-02-28T02:02:55;102886.78;;;-0.42;88.73
59787;BME280;45672;51.612;5.536;2023-02-28T02:05:23;102894.53;;;-0.39;89.01
59787;BME280;45672;51.612;5.536;2023-02-28T02:07:52;102894.50;;;-0.38;88.82
59787;BME280;45672;51.612;5.536;2023-02-28T02:10:39;102878.94;;;-0.42;88.51
59787;BME280;45672;51.612;5.536;2023-02-28T02:13:37;102890.97;;;-0.35;88.13
59787;BME280;45672;51.612;5.536;2023-02-28T02:18:47;102879.44;;;-0.26;89.28
59787;BME280;45672;51.612;5.536;2023-02-28T02:28:21;102881.81;;;-0.15;87.83
59787;BME280;45672;51.612;5.536;2023-02-28T02:30:43;102882.69;;;-0.15;87.24
59787;BME280;45672;51.612;5.536;2023-02-28T02:33:42;102887.03;;;-0.14;86.65
59787;BME280;45672;51.612;5.536;2023-02-28T02:37:08;102880.88;;;-0.13;86.56
59787;BME280;45672;51.612;5.536;2023-02-28T02:39:58;102877.28;;;-0.09;86.57
59787;BME280;45672;51.612;5.536;2023-02-28T02:42:36;102883.31;;;-0.05;86.27
59787;BME280;45672;51.612;5.536;2023-02-28T02:45:12;102883.22;;;-0.01;88.15
59787;BME280;45672;51.612;5.536;2023-02-28T02:47:41;102867.47;;;0.01;86.81
59787;BME280;45672;51.612;5.536;2023-02-28T02:50:12;102885.72;;;0.04;86.58
59787;BME280;45672;51.612;5.536;2023-02-28T02:52:42;102870.94;;;0.03;86.36
59787;BME280;45672;51.612;5.536;2023-02-28T02:55:11;102883.09;;;0.04;86.86
59787;BME280;45672;51.612;5.536;2023-02-28T02:57:46;102874.25;;;0.10;86.73
59787;BME280;45672;51.612;5.536;2023-02-28T03:00:14;102875.94;;;0.12;85.21
59787;BME280;45672;51.612;5.536;2023-02-28T03:02:42;102871.59;;;0.11;86.32
59787;BME280;45672;51.612;5.536;2023-02-28T03:05:18;102871.56;;;0.13;86.67
59787;BME280;45672;51.612;5.536;2023-02-28T03:07:45;102876.81;;;0.11;86.13
59787;BME280;45672;51.612;5.536;2023-02-28T03:10:29;102880.28;;;0.13;86.10
59787;BME280;45672;51.612;5.536;2023-02-28T03:13:18;102880.22;;;0.15;86.08
59787;BME280;45672;51.612;5.536;2023-02-28T03:15:59;102878.38;;;0.20;85.58
59787;BME280;45672;51.612;5.536;2023-02-28T03:18:40;102865.31;;;0.19;84.80
59787;BME280;45672;51.612;5.536;2023-02-28T03:21:15;102870.47;;;0.22;86.01
59787;BME280;45672;51.612;5.536;2023-02-28T03:24:10;102873.06;;;0.23;84.74
59787;BME280;45672;51.612;5.536;2023-02-28T03:26:39;102877.38;;;0.26;83.66
59787;BME280;45672;51.612;5.536;2023-02-28T03:29:17;102866.22;;;0.17;84.92
59787;BME280;45672;51.612;5.536;2023-02-28T03:31:57;102877.41;;;0.23;84.79
59787;BME280;45672;51.612;5.536;2023-02-28T03:34:31;102873.91;;;0.24;84.11
59787;BME280;45672;51.612;5.536;2023-02-28T03:37:05;102872.13;;;0.26;84.67
59787;BME280;45672;51.612;5.536;2023-02-28T03:39:40;102872.94;;;0.28;83.96
59787;BME280;45672;51.612;5.536;2023-02-28T03:42:15;102884.25;;;0.30;83.76
59787;BME280;45672;51.612;5.536;2023-02-28T03:44:50;102886.00;;;0.29;84.10
59787;BME280;45672;51.612;5.536;2023-02-28T03:47:37;102880.66;;;0.32;84.37
59787;BME280;45672;51.612;5.536;2023-02-28T03:52:38;102884.81;;;0.43;83.90
59787;BME280;45672;51.612;5.536;2023-02-28T03:55:09;102882.09;;;0.46;83.31
59787;BME280;45672;51.612;5.536;2023-02-28T04:00:33;102879.41;;;0.49;82.98
59787;BME280;45672;51.612;5.536;2023-02-28T04:03:00;102880.31;;;0.46;82.86
59787;BME280;45672;51.612;5.536;2023-02-28T04:05:26;102883.78;;;0.48;82.24
59787;BME280;45672;51.612;5.536;2023-02-28T04:07:52;102881.19;;;0.47;82.78
59787;BME280;45672;51.612;5.536;2023-02-28T04:10:19;102875.06;;;0.48;83.34
59787;BME280;45672;51.612;5.536;2023-02-28T04:12:44;102875.88;;;0.50;82.23
59787;BME280;45672;51.612;5.536;2023-02-28T04:15:10;102874.13;;;0.50;82.85
59787;BME280;45672;51.612;5.536;2023-02-28T04:17:36;102879.34;;;0.50;82.97
59787;BME280;45672;51.612;5.536;2023-02-28T04:20:02;102875.81;;;0.53;82.80
59787;BME280;45672;51.612;5.536;2023-02-28T04:22:28;102878.38;;;0.55;82.91
59787;BME280;45672;51.612;5.536;2023-02-28T04:24:53;102885.34;;;0.56;82.75
59787;BME280;45672;51.612;5.536;2023-02-28T04:27:19;102887.94;;;0.57;81.98
59787;BME280;45672;51.612;5.536;2023-02-28T04:29:45;102885.31;;;0.57;82.13
59787;BME280;45672;51.612;5.536;2023-02-28T04:32:10;102888.69;;;0.61;83.17
59787;BME280;45672;51.612;5.536;2023-02-28T04:34:36;102889.56;;;0.61;82.30
59787;BME280;45672;51.612;5.536;2023-02-28T04:37:01;102879.09;;;0.61;82.01
59787;BME280;45672;51.612;5.536;2023-02-28T04:39:28;102889.53;;;0.63;81.40
59787;BME280;45672;51.612;5.536;2023-02-28T04:41:54;102887.75;;;0.63;81.95
59787;BME280;45672;51.612;5.536;2023-02-28T04:44:20;102887.66;;;0.66;81.35
59787;BME280;45672;51.612;5.536;2023-02-28T04:46:48;102884.97;;;0.69;82.01
59787;BME280;45672;51.612;5.536;2023-02-28T04:49:14;102888.38;;;0.73;82.56
59787;BME280;45672;51.612;5.536;2023-02-28T04:51:40;102898.81;;;0.75;82.00
59787;BME280;45672;51.612;5.536;2023-02-28T04:54:06;102886.56;;;0.75;81.83
59787;BME280;45672;51.612;5.536;2023-02-28T04:56:31;102898.72;;;0.78;82.30
59787;BME280;45672;51.612;5.536;2023-02-28T04:58:57;102887.53;;;0.73;82.17
59787;BME280;45672;51.612;5.536;2023-02-28T05:03:50;102897.94;;;0.76;82.55
59787;BME280;45672;51.612;5.536;2023-02-28T05:06:17;102902.28;;;0.75;82.66
59787;BME280;45672;51.612;5.536;2023-02-28T05:08:42;102895.34;;;0.74;82.35
59787;BME280;45672;51.612;5.536;2023-02-28T05:11:20;102898.84;;;0.73;83.70
59787;BME280;45672;51.612;5.536;2023-02-28T05:13:46;102893.66;;;0.72;84.18
59787;BME280;45672;51.612;5.536;2023-02-28T05:16:12;102899.84;;;0.69;84.10
59787;BME280;45672;51.612;5.536;2023-02-28T05:18:38;102905.16;;;0.66;84.01
59787;BME280;45672;51.612;5.536;2023-02-28T05:21:03;102906.97;;;0.62;84.42
59787;BME280;45672;51.612;5.536;2023-02-28T05:23:29;102911.47;;;0.59;84.93
59787;BME280;45672;51.612;5.536;2023-02-28T05:25:54;102904.50;;;0.58;84.91
59787;BME280;45672;51.612;5.536;2023-02-28T05:28:20;102906.31;;;0.56;84.29
59787;BME280;45672;51.612;5.536;2023-02-28T05:30:46;102901.06;;;0.56;84.77
59787;BME280;45672;51.612;5.536;2023-02-28T05:33:12;102901.06;;;0.56;85.03
59787;BME280;45672;51.612;5.536;2023-02-28T05:35:39;102900.09;;;0.58;84.60
59787;BME280;45672;51.612;5.536;2023-02-28T05:38:04;102906.25;;;0.57;84.33
59787;BME280;45672;51.612;5.536;2023-02-28T05:40:29;102911.47;;;0.59;84.04
59787;BME280;45672;51.612;5.536;2023-02-28T05:42:55;102907.09;;;0.58;84.17
59787;BME280;45672;51.612;5.536;2023-02-28T05:45:20;102907.97;;;0.58;84.37
59787;BME280;45672;51.612;5.536;2023-02-28T05:47:45;102915.81;;;0.60;84.54
59787;BME280;45672;51.612;5.536;2023-02-28T05:50:11;102914.94;;;0.59;84.72
59787;BME280;45672;51.612;5.536;2023-02-28T05:52:36;102912.38;;;0.56;84.94
59787;BME280;45672;51.612;5.536;2023-02-28T05:55:02;102908.09;;;0.54;84.00
59787;BME280;45672;51.612;5.536;2023-02-28T05:57:28;102914.25;;;0.51;82.84
59787;BME280;45672;51.612;5.536;2023-02-28T05:59:53;102916.97;;;0.48;84.26
59787;BME280;45672;51.612;5.536;2023-02-28T06:02:19;102916.09;;;0.47;84.08
59787;BME280;45672;51.612;5.536;2023-02-28T06:04:44;102913.50;;;0.47;83.62
59787;BME280;45672;51.612;5.536;2023-02-28T06:07:10;102910.88;;;0.47;83.37
59787;BME280;45672;51.612;5.536;2023-02-28T06:09:36;102916.09;;;0.47;84.17
59787;BME280;45672;51.612;5.536;2023-02-28T06:12:03;102923.94;;;0.49;83.82
59787;BME280;45672;51.612;5.536;2023-02-28T06:14:31;102919.44;;;0.52;83.83
59787;BME280;45672;51.612;5.536;2023-02-28T06:16:56;102922.06;;;0.52;82.66
59787;BME280;45672;51.612;5.536;2023-02-28T06:19:22;102922.06;;;0.52;82.57
59787;BME280;45672;51.612;5.536;2023-02-28T06:21:51;102926.41;;;0.54;83.18
59787;BME280;45672;51.612;5.536;2023-02-28T06:24:21;102929.91;;;0.54;82.44
59787;BME280;45672;51.612;5.536;2023-02-28T06:26:47;102931.66;;;0.54;82.90
59787;BME280;45672;51.612;5.536;2023-02-28T06:29:12;102939.44;;;0.57;83.00
59787;BME280;45672;51.612;5.536;2023-02-28T06:31:46;102935.94;;;0.58;84.26
59787;BME280;45672;51.612;5.536;2023-02-28T06:34:13;102931.47;;;0.61;83.82
59787;BME280;45672;51.612;5.536;2023-02-28T06:36:39;102922.66;;;0.65;83.67
59787;BME280;45672;51.612;5.536;2023-02-28T06:39:06;102938.34;;;0.67;82.85
59787;BME280;45672;51.612;5.536;2023-02-28T06:41:31;102932.22;;;0.66;84.13
59787;BME280;45672;51.612;5.536;2023-02-28T06:44:03;102929.50;;;0.69;84.11
59787;BME280;45672;51.612;5.536;2023-02-28T06:46:28;102938.22;;;0.72;83.94
59787;BME280;45672;51.612;5.536;2023-02-28T06:48:54;102929.50;;;0.69;83.20
59787;BME280;45672;51.612;5.536;2023-02-28T06:51:20;102936.59;;;0.66;82.78
59787;BME280;45672;51.612;5.536;2023-02-28T06:53:47;102932.41;;;0.59;83.43
59787;BME280;45672;51.612;5.536;2023-02-28T06:56:14;102940.34;;;0.56;82.89
59787;BME280;45672;51.612;5.536;2023-02-28T06:58:40;102949.19;;;0.51;82.77
59787;BME280;45672;51.612;5.536;2023-02-28T07:01:06;102945.66;;;0.52;82.12
59787;BME280;45672;51.612;5.536;2023-02-28T07:03:32;102941.47;;;0.45;82.57
59787;BME280;45672;51.612;5.536;2023-02-28T07:05:58;102941.41;;;0.47;82.88
59787;BME280;45672;51.612;5.536;2023-02-28T07:08:24;102941.41;;;0.48;82.99
59787;BME280;45672;51.612;5.536;2023-02-28T07:10:56;102943.06;;;0.51;83.03
59787;BME280;45672;51.612;5.536;2023-02-28T07:13:22;102943.91;;;0.53;82.47
59787;BME280;45672;51.612;5.536;2023-02-28T07:16:02;102946.47;;;0.55;81.59
59787;BME280;45672;51.612;5.536;2023-02-28T07:18:28;102947.28;;;0.57;80.76
59787;BME280;45672;51.612;5.536;2023-02-28T07:20:54;102953.38;;;0.59;79.93
59787;BME280;45672;51.612;5.536;2023-02-28T07:23:20;102950.63;;;0.63;79.74
59787;BME280;45672;51.612;5.536;2023-02-28T07:25:46;102957.44;;;0.71;79.21
59787;BME280;45672;51.612;5.536;2023-02-28T07:28:12;102968.47;;;0.83;78.46
59787;BME280;45672;51.612;5.536;2023-02-28T07:30:38;102969.22;;;0.89;79.32
59787;BME280;45672;51.612;5.536;2023-02-28T07:33:04;102970.47;;;1.07;80.42
59787;BME280;45672;51.612;5.536;2023-02-28T07:35:30;102971.81;;;1.23;78.26
59787;BME280;45672;51.612;5.536;2023-02-28T07:37:57;102968.91;;;1.34;77.92
59787;BME280;45672;51.612;5.536;2023-02-28T07:40:23;102972.94;;;1.46;76.48
59787;BME280;45672;51.612;5.536;2023-02-28T07:42:48;102972.69;;;1.53;76.45
59787;BME280;45672;51.612;5.536;2023-02-28T07:45:13;102979.53;;;1.59;75.42
59787;BME280;45672;51.612;5.536;2023-02-28T07:47:39;102978.50;;;1.65;74.63
59787;BME280;45672;51.612;5.536;2023-02-28T07:50:06;102986.91;;;1.76;74.33
59787;BME280;45672;51.612;5.536;2023-02-28T07:52:31;102977.91;;;1.86;73.57
59787;BME280;45672;51.612;5.536;2023-02-28T07:54:57;102979.28;;;1.98;73.19
59787;BME280;45672;51.612;5.536;2023-02-28T07:57:22;102979.66;;;2.14;71.36
59787;BME280;45672;51.612;5.536;2023-02-28T07:59:48;102979.56;;;2.46;71.43
59787;BME280;45672;51.612;5.536;2023-02-28T08:02:14;102993.56;;;3.00;68.24
59787;BME280;45672;51.612;5.536;2023-02-28T08:04:40;102987.34;;;3.27;66.13
59787;BME280;45672;51.612;5.536;2023-02-28T08:07:05;102990.50;;;3.61;66.01
59787;BME280;45672;51.612;5.536;2023-02-28T08:09:31;102987.25;;;3.78;61.97
59787;BME280;45672;51.612;5.536;2023-02-28T08:11:56;102989.66;;;3.84;61.29
59787;BME280;45672;51.612;5.536;2023-02-28T08:14:22;102996.63;;;4.09;58.46
59787;BME280;45672;51.612;5.536;2023-02-28T08:16:47;102990.09;;;4.41;56.25
59787;BME280;45672;51.612;5.536;2023-02-28T08:19:13;102989.66;;;4.52;54.51
59787;BME280;45672;51.612;5.536;2023-02-28T08:21:38;102979.56;;;5.05;53.05
59787;BME280;45672;51.612;5.536;2023-02-28T08:24:04;102984.47;;;5.33;49.38
59787;BME280;45672;51.612;5.536;2023-02-28T08:26:30;102984.03;;;5.23;48.66
59787;BME280;45672;51.612;5.536;2023-02-28T08:28:55;102970.50;;;5.50;49.20
59787;BME280;45672;51.612;5.536;2023-02-28T08:31:20;102981.44;;;5.61;48.75
59787;BME280;45672;51.612;5.536;2023-02-28T08:33:46;102994.72;;;5.41;48.44
59787;BME280;45672;51.612;5.536;2023-02-28T08:36:13;102978.06;;;5.39;47.47
59787;BME280;45672;51.612;5.536;2023-02-28T08:38:40;102975.53;;;5.56;47.31
59787;BME280;45672;51.612;5.536;2023-02-28T08:41:07;102982.72;;;6.11;45.75
59787;BME280;45672;51.612;5.536;2023-02-28T08:43:34;102977.41;;;6.30;44.84
59787;BME280;45672;51.612;5.536;2023-02-28T08:46:00;102976.75;;;6.97;45.17
59787;BME280;45672;51.612;5.536;2023-02-28T08:48:27;102976.03;;;7.78;43.97
59787;BME280;45672;51.612;5.536;2023-02-28T08:51:22;102980.88;;;8.95;45.81
59787;BME280;45672;51.612;5.536;2023-02-28T08:53:52;102975.56;;;10.51;37.84
59787;BME280;45672;51.612;5.536;2023-02-28T08:56:19;102978.19;;;10.91;36.20
59787;BME280;45672;51.612;5.536;2023-02-28T08:58:45;102992.06;;;11.61;35.73
59787;BME280;45672;51.612;5.536;2023-02-28T09:01:17;102981.84;;;12.53;34.33
59787;BME280;45672;51.612;5.536;2023-02-28T09:03:43;102991.31;;;13.73;32.06
59787;BME280;45672;51.612;5.536;2023-02-28T09:06:10;102998.09;;;13.89;31.10
59787;BME280;45672;51.612;5.536;2023-02-28T09:08:36;102999.25;;;14.51;28.04
59787;BME280;45672;51.612;5.536;2023-02-28T09:11:02;102996.94;;;14.14;27.93
59787;BME280;45672;51.612;5.536;2023-02-28T09:13:28;102994.50;;;14.55;27.52
59787;BME280;45672;51.612;5.536;2023-02-28T09:15:57;102993.16;;;15.55;27.50
59787;BME280;45672;51.612;5.536;2023-02-28T09:18:22;102997.63;;;16.65;24.94
59787;BME280;45672;51.612;5.536;2023-02-28T09:20:48;103000.00;;;16.48;24.06
59787;BME280;45672;51.612;5.536;2023-02-28T09:23:13;102998.72;;;16.03;23.95
59787;BME280;45672;51.612;5.536;2023-02-28T09:25:46;103000.78;;;15.49;25.53
59787;BME280;45672;51.612;5.536;2023-02-28T09:28:11;102991.06;;;15.27;24.45
59787;BME280;45672;51.612;5.536;2023-02-28T09:30:37;102987.03;;;15.12;23.79
59787;BME280;45672;51.612;5.536;2023-02-28T09:33:02;102999.53;;;15.63;24.64
59787;BME280;45672;51.612;5.536;2023-02-28T09:35:28;103001.41;;;16.03;24.93
59787;BME280;45672;51.612;5.536;2023-02-28T09:37:53;102986.44;;;16.40;23.78
59787;BME280;45672;51.612;5.536;2023-02-28T09:40:22;102996.63;;;16.36;22.21
59787;BME280;45672;51.612;5.536;2023-02-28T09:42:49;103006.38;;;16.18;22.87
59787;BME280;45672;51.612;5.536;2023-02-28T09:45:32;102997.28;;;15.99;25.92
59787;BME280;45672;51.612;5.536;2023-02-28T09:48:01;102997.81;;;15.93;22.71
59787;BME280;45672;51.612;5.536;2023-02-28T09:50:45;102990.00;;;16.60;24.37
59787;BME280;45672;51.612;5.536;2023-02-28T09:53:16;102992.25;;;16.65;26.64
59787;BME280;45672;51.612;5.536;2023-02-28T09:55:55;102993.94;;;16.56;27.64
59787;BME280;45672;51.612;5.536;2023-02-28T09:58:49;102994.41;;;15.81;26.35
59787;BME280;45672;51.612;5.536;2023-02-28T10:04:33;102991.94;;;16.09;25.73
59787;BME280;45672;51.612;5.536;2023-02-28T10:07:07;102994.50;;;14.22;23.91
59787;BME280;45672;51.612;5.536;2023-02-28T10:09:42;102987.53;;;11.87;26.22
59787;BME280;45672;51.612;5.536;2023-02-28T10:12:11;102983.31;;;10.41;29.23
59787;BME280;45672;51.612;5.536;2023-02-28T10:14:46;102982.22;;;9.60;30.70
59787;BME280;45672;51.612;5.536;2023-02-28T10:17:16;102968.91;;;8.58;32.25
59787;BME280;45672;51.612;5.536;2023-02-28T10:20:07;102976.63;;;8.31;33.08
59787;BME280;45672;51.612;5.536;2023-02-28T10:25:32;102970.28;;;6.85;33.96
59787;BME280;45672;51.612;5.536;2023-02-28T10:28:10;102967.34;;;6.91;34.98
59787;BME280;45672;51.612;5.536;2023-02-28T10:30:39;102970.38;;;6.83;33.77
59787;BME280;45672;51.612;5.536;2023-02-28T10:33:14;102964.19;;;6.48;33.02
59787;BME280;45672;51.612;5.536;2023-02-28T10:35:43;102978.97;;;5.96;33.44
59787;BME280;45672;51.612;5.536;2023-02-28T10:38:16;102989.25;;;5.83;34.81
59787;BME280;45672;51.612;5.536;2023-02-28T10:40:42;102973.34;;;5.85;34.10
59787;BME280;45672;51.612;5.536;2023-02-28T10:45:39;102953.81;;;5.68;34.03
59787;BME280;45672;51.612;5.536;2023-02-28T10:48:47;102954.66;;;5.50;35.37
59787;BME280;45672;51.612;5.536;2023-02-28T10:51:15;102957.38;;;5.48;35.99
59787;BME280;45672;51.612;5.536;2023-02-28T10:53:50;102955.03;;;5.61;35.70
59787;BME280;45672;51.612;5.536;2023-02-28T10:56:24;102949.19;;;5.55;35.85
59787;BME280;45672;51.612;5.536;2023-02-28T11:01:39;102950.50;;;5.65;35.85
59787;BME280;45672;51.612;5.536;2023-02-28T11:09:41;102938.97;;;5.47;34.96
59787;BME280;45672;51.612;5.536;2023-02-28T11:12:23;102947.78;;;5.27;37.14
59787;BME280;45672;51.612;5.536;2023-02-28T11:14:53;102948.31;;;5.35;36.17
59787;BME280;45672;51.612;5.536;2023-02-28T11:17:25;102941.91;;;5.41;35.58
59787;BME280;45672;51.612;5.536;2023-02-28T11:19:55;102943.56;;;5.43;36.41
59787;BME280;45672;51.612;5.536;2023-02-28T11:22:29;102932.13;;;5.43;35.96
59787;BME280;45672;51.612;5.536;2023-02-28T11:24:59;102928.78;;;5.39;37.01
59787;BME280;45672;51.612;5.536;2023-02-28T11:29:54;102917.94;;;5.45;36.22
59787;BME280;45672;51.612;5.536;2023-02-28T11:32:23;102924.19;;;5.43;36.71
59787;BME280;45672;51.612;5.536;2023-02-28T11:37:37;102915.91;;;5.31;37.07
59787;BME280;45672;51.612;5.536;2023-02-28T11:40:09;102926.47;;;5.31;36.59
59787;BME280;45672;51.612;5.536;2023-02-28T11:42:53;102915.66;;;5.38;36.63
59787;BME280;45672;51.612;5.536;2023-02-28T11:48:05;102922.00;;;5.33;35.94
59787;BME280;45672;51.612;5.536;2023-02-28T11:50:46;102907.75;;;5.17;37.02
59787;BME280;45672;51.612;5.536;2023-02-28T11:53:23;102924.03;;;5.27;36.61
59787;BME280;45672;51.612;5.536;2023-02-28T11:56:15;102905.34;;;5.12;37.10
59787;BME280;45672;51.612;5.536;2023-02-28T12:04:11;102903.44;;;5.16;36.98
59787;BME280;45672;51.612;5.536;2023-02-28T12:12:54;102906.06;;;5.16;37.83
59787;BME280;45672;51.612;5.536;2023-02-28T12:15:31;102903.84;;;5.26;37.20
59787;BME280;45672;51.612;5.536;2023-02-28T12:18:12;102917.25;;;5.21;36.91
59787;BME280;45672;51.612;5.536;2023-02-28T12:26:32;102883.38;;;5.31;37.28
59787;BME280;45672;51.612;5.536;2023-02-28T12:29:23;102875.69;;;5.26;37.16
59787;BME280;45672;51.612;5.536;2023-02-28T12:31:53;102880.53;;;5.16;38.25
59787;BME280;45672;51.612;5.536;2023-02-28T12:34:27;102889.66;;;5.28;37.70
59787;BME280;45672;51.612;5.536;2023-02-28T12:36:56;102887.81;;;5.30;38.03
59787;BME280;45672;51.612;5.536;2023-02-28T12:39:26;102885.03;;;5.33;37.63
59787;BME280;45672;51.612;5.536;2023-02-28T12:42:09;102870.41;;;5.26;37.38
59787;BME280;45672;51.612;5.536;2023-02-28T12:44:43;102881.66;;;5.30;38.36
59787;BME280;45672;51.612;5.536;2023-02-28T12:47:14;102865.50;;;5.38;37.39
59787;BME280;45672;51.612;5.536;2023-02-28T12:49:46;102876.25;;;5.33;37.92
59787;BME280;45672;51.612;5.536;2023-02-28T12:52:19;102875.53;;;5.29;37.92
59787;BME280;45672;51.612;5.536;2023-02-28T12:54:51;102862.50;;;5.26;38.56
59787;BME280;45672;51.612;5.536;2023-02-28T13:00:10;102857.47;;;5.20;38.00
59787;BME280;45672;51.612;5.536;2023-02-28T13:11:45;102847.19;;;5.33;38.76
59787;BME280;45672;51.612;5.536;2023-02-28T13:14:25;102848.50;;;5.24;39.45
59787;BME280;45672;51.612;5.536;2023-02-28T13:16:56;102843.31;;;5.42;38.11
59787;BME280;45672;51.612;5.536;2023-02-28T13:19:25;102836.53;;;5.36;37.84
59787;BME280;45672;51.612;5.536;2023-02-28T13:21:51;102834.59;;;5.21;38.52
59787;BME280;45672;51.612;5.536;2023-02-28T13:24:45;102828.69;;;5.34;38.77
59787;BME280;45672;51.612;5.536;2023-02-28T13:27:21;102833.38;;;5.47;37.98
59787;BME280;45672;51.612;5.536;2023-02-28T13:29:52;102826.16;;;5.31;38.00
59787;BME280;45672;51.612;5.536;2023-02-28T13:32:30;102819.34;;;5.27;38.54
59787;BME280;45672;51.612;5.536;2023-02-28T13:39:56;102821.09;;;5.27;39.30
59787;BME280;45672;51.612;5.536;2023-02-28T13:47:38;102822.03;;;5.45;38.70
59787;BME280;45672;51.612;5.536;2023-02-28T13:55:37;102823.25;;;5.38;38.43
59787;BME280;45672;51.612;5.536;2023-02-28T14:01:40;102825.38;;;5.48;38.96
59787;BME280;45672;51.612;5.536;2023-02-28T14:04:50;102825.72;;;5.60;38.45
59787;BME280;45672;51.612;5.536;2023-02-28T14:07:23;102814.03;;;5.46;37.85
59787;BME280;45672;51.612;5.536;2023-02-28T14:10:02;102817.91;;;5.39;38.47
59787;BME280;45672;51.612;5.536;2023-02-28T14:12:59;102803.31;;;5.49;38.78
59787;BME280;45672;51.612;5.536;2023-02-28T14:15:34;102812.06;;;5.51;38.84
59787;BME280;45672;51.612;5.536;2023-02-28T14:18:03;102796.63;;;5.42;38.66
59787;BME280;45672;51.612;5.536;2023-02-28T14:20:33;102798.34;;;5.43;38.54
59787;BME280;45672;51.612;5.536;2023-02-28T14:23:16;102805.91;;;5.51;38.78
59787;BME280;45672;51.612;5.536;2023-02-28T14:26:43;102809.69;;;5.45;39.51
59787;BME280;45672;51.612;5.536;2023-02-28T14:31:35;102800.34;;;5.38;38.34
59787;BME280;45672;51.612;5.536;2023-02-28T14:36:53;102803.97;;;5.35;39.72
59787;BME280;45672;51.612;5.536;2023-02-28T14:39:22;102790.69;;;5.37;38.90
59787;BME280;45672;51.612;5.536;2023-02-28T14:41:49;102789.09;;;5.34;39.59
59787;BME280;45672;51.612;5.536;2023-02-28T14:44:26;102798.19;;;5.46;39.56
59787;BME280;45672;51.612;5.536;2023-02-28T14:46:56;102802.91;;;5.40;40.10
59787;BME280;45672;51.612;5.536;2023-02-28T14:49:35;102786.44;;;5.34;39.75